Salem, Virginia
Current Conditions -  °F | °C
As of 5:54 PM on Wednesday 22 Oct 2014 (Local Time) from KROA Reporting Station
Scattered Clouds Scattered Clouds  
Wind Chill: 54°   Ceiling: Unl
Heat Index: 54°   Visibility: 10mi
Dew Point: 38°   Wind: 20mph
Humidity: 55%   Direction: 320°NW
Pressure: 30.08"   Gusts: 28mph
Location:  37.29°N, 80.05°W
Report Text: KROA 222154Z 32017G24KT 10SM SCT047 SCT060 12/03 A3008 RMK AO2 SLP184 T01220033
Loading
Personal Weather Stations






























Interactive Weather Map New forecast layout! Learn more

10-Day Weather Forecast

Advertisements
Track Severe Weather on mobile